Watkins Glen, New York
Current Conditions -  °F | °C
As of 9:53 PM on Wednesday 26 Nov 2014 (Local Time) from KELM Reporting Station
Haze Haze  
Wind Chill: -3°   Ceiling: 1600
Heat Index:   Visibility: 6mi
Dew Point: -2°   Wind: 5mph
Humidity: 85%   Direction: 60°ENE
Pressure: 29.96"   Gusts: NA
Location:  42.38°N, 76.87°W
Report Text: KELM 270253Z 06004KT 6SM BR OVC016 00/M02 A2996 RMK AO2 SNB0158E42 SLP156 P0000 60000 T00001022 56008
Loading
Personal Weather Stations






























Interactive Weather Map New forecast layout! Learn more

10-Day Weather Forecast

Advertisements
Track Severe Weather on mobile